Pangbourne, United Kingdom
Current Conditions -  °F | °C
As of 11:50 AM on Friday 31 Oct 2014 (Local Time) from EGUB Reporting Station
Clear Clear  
Wind Chill: 68°   Ceiling: Unl
Heat Index: 68°   Visibility: 6mi
Dew Point: 57°   Wind: 18mph
Humidity: 68%   Direction: 140°SE
Pressure: 30"   Gusts: NA
Location:  51.48°N, 1.09°W
Report Text: EGUB 311150Z 14016KT CAVOK 20/14 Q1016 BLU NOSIG
Loading
Personal Weather Stations






























Interactive Weather Map
Tropical Storm Tracking
New forecast layout! Learn more

10-Day Weather Forecast

Advertisements
Track Severe Weather on mobile